Time;durP1;ratioP1;P1;durP2;ratioP2;P2;SDS_P1;SDS_P2;PMS_P1;PMS_P2;Temp;Humidity;BMP_temperature;BMP_pressure;BME280_temperature;BME280_humidity;BME280_pressure;Samples;Min_cycle;Max_cycle;Signal;HPM_P1;HPM_P2
2022/06/13 00:01:04;;;;;;;0.93;0.77;;;;;;;19.62;65.48;95443.84;4373288;32;20197;-61
2022/06/13 00:03:30;;;;;;;0.57;0.57;;;;;;;19.62;65.81;95441.16;4372975;32;20226;-61
2022/06/13 00:05:57;;;;;;;0.30;0.30;;;;;;;19.56;64.77;95434.47;4372350;32;20239;-61
2022/06/13 00:08:23;;;;;;;0.53;0.53;;;;;;;19.61;64.95;95442.28;4373844;32;20185;-61
2022/06/13 00:10:50;;;;;;;0.33;0.33;;;;;;;19.66;65.52;95503.94;4373513;32;20187;-61
2022/06/13 00:13:15;;;;;;;0.53;0.53;;;;;;;19.66;66.05;95533.56;4359276;32;20216;-61
2022/06/13 00:15:42;;;;;;;1.20;1.10;;;;;;;19.66;66.52;95528.19;4375116;32;20189;-61
2022/06/13 00:18:08;;;;;;;1.70;0.80;;;;;;;19.69;68.43;95557.09;4372727;32;20181;-61
2022/06/13 00:20:35;;;;;;;3.13;0.90;;;;;;;19.65;70.47;95552.75;4371954;32;20256;-61
2022/06/13 00:23:02;;;;;;;0.60;0.60;;;;;;;19.59;72.00;95568.34;4366342;32;20197;-61
2022/06/13 00:25:27;;;;;;;0.67;0.67;;;;;;;19.56;73.22;95579.81;4372729;32;20205;-61
2022/06/13 00:27:53;;;;;;;0.37;0.37;;;;;;;19.49;75.94;95579.59;4373460;32;20230;-61
2022/06/13 00:30:19;;;;;;;1.80;1.33;;;;;;;19.29;78.99;95578.69;4359306;32;20196;-61
2022/06/13 00:32:44;;;;;;;0.93;0.93;;;;;;;19.04;82.22;95590.63;4372710;32;20184;-61
2022/06/13 00:35:11;;;;;;;1.27;1.17;;;;;;;18.85;85.27;95588.56;4373454;32;20195;-60
2022/06/13 00:37:37;;;;;;;0.97;0.97;;;;;;;18.71;87.56;95588.87;4372761;32;20233;-61
2022/06/13 00:40:05;;;;;;;0.60;0.60;;;;;;;18.62;88.28;95584.78;4372210;32;20264;-61
2022/06/13 00:42:31;;;;;;;1.80;1.70;;;;;;;18.53;89.50;95601.75;4373326;32;20184;-61
2022/06/13 00:45:22;;;;;;;1.17;1.17;;;;;;;18.51;89.94;95595.94;4373167;32;20264;-61
2022/06/13 00:47:51;;;;;;;1.03;1.03;;;;;;;18.43;91.15;95602.22;4374223;32;20199;-61
2022/06/13 00:50:19;;;;;;;0.90;0.90;;;;;;;18.43;91.29;95594.16;4378005;32;20243;-61
2022/06/13 00:52:45;;;;;;;1.20;1.20;;;;;;;18.46;90.65;95596.19;4359465;32;20200;-62
2022/06/13 00:55:16;;;;;;;2.37;1.23;;;;;;;18.45;90.91;95608.03;4374583;32;20181;-61
2022/06/13 00:57:42;;;;;;;1.63;1.53;;;;;;;18.42;91.62;95632.91;4359517;32;20212;-61
2022/06/13 01:00:11;;;;;;;1.33;1.30;;;;;;;18.39;92.32;95648.91;4373056;32;20226;-61
2022/06/13 01:02:42;;;;;;;1.40;1.37;;;;;;;18.20;94.23;95649.44;4359372;32;20213;-61
2022/06/13 01:05:09;;;;;;;0.77;0.77;;;;;;;18.07;95.99;95651.31;4373190;32;20195;-61
2022/06/13 01:07:37;;;;;;;1.30;1.30;;;;;;;17.95;97.37;95650.50;4359890;32;20218;-61
2022/06/13 01:12:52;;;;;;;1.63;1.57;;;;;;;17.76;99.16;95633.00;4362423;32;20256;-61
2022/06/13 01:15:33;;;;;;;1.83;1.73;;;;;;;17.80;99.76;95625.84;4375847;32;20199;-61
2022/06/13 01:18:22;;;;;;;1.03;1.03;;;;;;;17.89;99.95;95614.22;4369774;32;20185;-61
2022/06/13 01:20:58;;;;;;;1.37;1.37;;;;;;;17.84;100.00;95594.56;4361632;32;20200;-61
2022/06/13 01:23:57;;;;;;;1.37;1.37;;;;;;;17.93;100.00;95593.66;4369303;32;20214;-61
2022/06/13 01:26:45;;;;;;;2.60;1.63;;;;;;;17.84;100.00;95599.94;4362077;32;20211;-61
2022/06/13 01:29:26;;;;;;;0.97;0.97;;;;;;;17.88;100.00;95610.75;4376256;32;20189;-61
2022/06/13 01:32:10;;;;;;;1.23;1.23;;;;;;;17.77;100.00;95613.09;4375070;32;20193;-61
2022/06/13 01:34:57;;;;;;;2.47;2.27;;;;;;;17.68;100.00;95617.75;4375608;32;20185;-61
2022/06/13 01:38:13;;;;;;;1.37;1.37;;;;;;;17.71;100.00;95627.81;4363414;32;20208;-61
2022/06/13 01:40:59;;;;;;;1.47;1.47;;;;;;;17.63;100.00;95626.00;4328380;33;20205;-61
2022/06/13 01:43:53;;;;;;;0.87;0.87;;;;;;;17.68;100.00;95628.50;4324726;33;20185;-61
2022/06/13 01:46:55;;;;;;;1.30;1.30;;;;;;;17.72;100.00;95644.72;4326879;33;20193;-61
2022/06/13 01:50:11;;;;;;;1.30;1.30;;;;;;;17.61;100.00;95654.28;4326633;32;20182;-61
2022/06/13 01:53:14;;;;;;;1.90;1.80;;;;;;;17.74;100.00;95663.97;4289473;33;20186;-61
2022/06/13 01:55:46;;;;;;;2.47;1.63;;;;;;;17.75;100.00;95666.31;4308621;32;20189;-61
2022/06/13 01:59:02;;;;;;;2.10;1.90;;;;;;;17.69;100.00;95656.09;4359135;32;20231;-61
2022/06/13 02:01:59;;;;;;;1.20;1.20;;;;;;;17.70;100.00;95642.34;4257033;33;20191;-61
2022/06/13 02:04:49;;;;;;;1.07;1.07;;;;;;;17.67;100.00;95645.69;4289822;32;20181;-61
2022/06/13 02:07:20;;;;;;;1.07;1.07;;;;;;;17.76;100.00;95646.41;4357619;32;20204;-62
2022/06/13 02:09:54;;;;;;;2.03;1.93;;;;;;;17.76;100.00;95659.84;4358576;32;20236;-61
2022/06/13 02:12:24;;;;;;;1.30;1.30;;;;;;;17.82;100.00;95671.94;4343978;32;20193;-61
2022/06/13 02:14:59;;;;;;;0.83;0.83;;;;;;;17.85;100.00;95690.06;4350010;32;20185;-61
2022/06/13 02:17:31;;;;;;;2.93;1.40;;;;;;;17.80;100.00;95700.22;4347776;32;20215;-61
2022/06/13 02:20:08;;;;;;;0.97;0.97;;;;;;;17.81;100.00;95696.44;4333684;32;20189;-61
2022/06/13 02:22:57;;;;;;;1.53;1.53;;;;;;;17.71;100.00;95689.56;4359318;32;20290;-61
2022/06/13 02:25:30;;;;;;;1.17;1.17;;;;;;;17.71;100.00;95688.78;4346024;32;20189;-61
2022/06/13 02:28:23;;;;;;;1.97;1.83;;;;;;;17.66;100.00;95687.09;4343722;32;20185;-61
2022/06/13 02:30:53;;;;;;;1.37;1.37;;;;;;;17.56;100.00;95678.63;4329342;32;20233;-61
2022/06/13 02:33:33;;;;;;;1.87;1.73;;;;;;;17.61;100.00;95673.84;4350737;32;20229;-61
2022/06/13 02:36:26;;;;;;;0.93;0.93;;;;;;;17.63;100.00;95654.72;4354775;32;20204;-61
2022/06/13 02:39:00;;;;;;;0.80;0.80;;;;;;;17.46;100.00;95647.59;4345167;32;20445;-61
2022/06/13 02:41:35;;;;;;;1.17;1.17;;;;;;;17.38;100.00;95653.84;4354390;32;20200;-61
2022/06/13 02:44:08;;;;;;;0.57;0.57;;;;;;;17.38;100.00;95651.16;4344160;32;20256;-61
2022/06/13 02:46:50;;;;;;;0.90;0.90;;;;;;;17.41;100.00;95642.44;4354373;32;20252;-61
2022/06/13 02:49:24;;;;;;;1.53;1.43;;;;;;;17.45;100.00;95640.69;4353988;32;20212;-61
2022/06/13 02:52:17;;;;;;;1.10;1.10;;;;;;;17.51;100.00;95650.88;4367733;32;20189;-61
2022/06/13 02:54:53;;;;;;;0.90;0.90;;;;;;;17.46;100.00;95647.59;4365769;32;20201;-61
2022/06/13 02:57:35;;;;;;;1.20;1.20;;;;;;;17.39;100.00;95650.03;4374328;32;20181;-61
2022/06/13 03:00:22;;;;;;;1.27;1.00;;;;;;;17.35;100.00;95652.59;4360594;32;20252;-61
2022/06/13 03:03:29;;;;;;;1.03;1.03;;;;;;;17.49;100.00;95660.34;4360033;32;20180;-61
2022/06/13 03:06:21;;;;;;;1.10;1.10;;;;;;;17.47;100.00;95667.94;4374342;32;20215;-61
2022/06/13 03:08:57;;;;;;;1.87;1.77;;;;;;;17.42;100.00;95665.47;4376739;32;20224;-61
2022/06/13 03:12:12;;;;;;;0.90;0.90;;;;;;;17.39;100.00;95669.59;4369749;32;20298;-61
2022/06/13 03:14:45;;;;;;;1.07;1.07;;;;;;;17.45;100.00;95668.31;4363314;32;20181;-61
2022/06/13 03:17:36;;;;;;;1.37;1.37;;;;;;;17.43;100.00;95659.00;4374366;32;20197;-61
2022/06/13 03:20:20;;;;;;;1.33;1.33;;;;;;;17.62;100.00;95671.94;4358807;32;20195;-61
2022/06/13 03:22:48;;;;;;;1.07;1.07;;;;;;;17.57;100.00;95675.59;4372016;32;20182;-61
2022/06/13 03:25:57;;;;;;;1.03;1.03;;;;;;;17.47;100.00;95670.63;4360472;32;20195;-61
2022/06/13 03:28:28;;;;;;;1.07;1.07;;;;;;;17.40;100.00;95665.03;4311565;33;20178;-61
2022/06/13 03:31:18;;;;;;;1.07;1.07;;;;;;;17.42;100.00;95638.66;4311199;33;20173;-61
2022/06/13 03:33:49;;;;;;;1.70;1.60;;;;;;;17.51;100.00;95612.53;4296916;33;20182;-62
2022/06/13 03:36:24;;;;;;;1.73;1.63;;;;;;;17.43;100.00;95579.31;4311526;33;20241;-62
2022/06/13 03:39:07;;;;;;;1.10;1.10;;;;;;;17.60;100.00;95596.34;4319700;32;20261;-61
2022/06/13 03:41:40;;;;;;;2.03;1.60;;;;;;;17.60;100.00;95593.66;4366607;32;20301;-61
2022/06/13 03:44:12;;;;;;;1.57;0.90;;;;;;;17.71;100.00;95619.00;4364583;32;20196;-61
2022/06/13 03:46:52;;;;;;;1.20;1.20;;;;;;;17.73;100.00;95639.03;4370950;32;20249;-61
2022/06/13 03:49:31;;;;;;;1.13;1.13;;;;;;;17.55;100.00;95642.94;4375385;32;20205;-61
2022/06/13 03:52:01;;;;;;;0.80;0.80;;;;;;;17.60;100.00;95633.91;4359792;32;20222;-61
2022/06/13 03:54:34;;;;;;;1.63;1.53;;;;;;;17.63;100.00;95631.38;4344359;32;20232;-61
2022/06/13 03:57:39;;;;;;;1.27;1.20;;;;;;;17.71;100.00;95635.88;4343674;32;20208;-61
2022/06/13 04:00:17;;;;;;;0.80;0.80;;;;;;;17.74;100.00;95645.16;4311034;33;20273;-61
2022/06/13 04:02:45;;;;;;;0.80;0.80;;;;;;;17.76;100.00;95635.69;4304964;33;20198;-61
2022/06/13 04:05:23;;;;;;;1.93;1.10;;;;;;;17.72;100.00;95636.66;4313458;33;20245;-61
2022/06/13 04:07:49;;;;;;;0.73;0.73;;;;;;;17.73;100.00;95630.19;4320398;33;20185;-61
2022/06/13 04:10:16;;;;;;;1.57;1.57;;;;;;;17.79;100.00;95618.91;4311245;33;20324;-62
2022/06/13 04:13:03;;;;;;;1.30;1.30;;;;;;;17.81;100.00;95619.37;4312463;33;20317;-61
2022/06/13 04:15:53;;;;;;;1.30;1.30;;;;;;;17.85;100.00;95606.06;4297866;33;20261;-61
2022/06/13 04:18:27;;;;;;;0.87;0.87;;;;;;;17.84;100.00;95607.19;4309543;33;20189;-61
2022/06/13 04:21:03;;;;;;;0.73;0.73;;;;;;;17.86;100.00;95613.00;4309030;33;20240;-61
2022/06/13 04:23:47;;;;;;;2.30;0.83;;;;;;;17.74;100.00;95616.44;4309649;33;20197;-61
2022/06/13 04:26:22;;;;;;;1.10;1.10;;;;;;;17.83;100.00;95619.84;4309419;33;20190;-61
2022/06/13 04:28:59;;;;;;;1.03;1.03;;;;;;;17.88;100.00;95621.50;4354930;32;20263;-62
2022/06/13 04:31:28;;;;;;;1.13;1.13;;;;;;;17.85;100.00;95622.97;4370930;32;20200;-61
2022/06/13 04:34:00;;;;;;;0.77;0.77;;;;;;;17.87;100.00;95621.84;4364458;32;20194;-61
2022/06/13 04:36:26;;;;;;;0.80;0.80;;;;;;;17.81;100.00;95616.69;4372666;32;20219;-61
2022/06/13 04:38:56;;;;;;;2.07;1.97;;;;;;;17.84;100.00;95616.03;4371719;32;20192;-61
2022/06/13 04:41:26;;;;;;;1.27;1.20;;;;;;;17.87;100.00;95616.47;4364414;32;20185;-61
2022/06/13 04:43:55;;;;;;;0.60;0.60;;;;;;;17.92;100.00;95622.41;4361981;32;20200;-61
2022/06/13 04:46:23;;;;;;;0.60;0.60;;;;;;;17.84;100.00;95637.50;4362709;32;20283;-61
2022/06/13 04:48:51;;;;;;;0.97;0.97;;;;;;;17.82;100.00;95634.37;4362462;32;20251;-62
2022/06/13 04:51:31;;;;;;;0.60;0.60;;;;;;;17.87;100.00;95619.16;4375954;32;20236;-62
2022/06/13 04:54:03;;;;;;;1.17;1.17;;;;;;;17.79;100.00;95620.81;4361838;32;20235;-61
2022/06/13 04:56:29;;;;;;;0.90;0.90;;;;;;;17.84;100.00;95623.28;4361138;32;20189;-61
2022/06/13 04:58:56;;;;;;;0.63;0.63;;;;;;;17.87;100.00;95624.53;4375548;32;20184;-61
2022/06/13 05:01:41;;;;;;;0.70;0.70;;;;;;;17.78;100.00;95628.09;4375746;32;20192;-61
2022/06/13 05:04:12;;;;;;;0.50;0.50;;;;;;;17.87;100.00;95632.59;4359711;32;20202;-61
2022/06/13 05:06:50;;;;;;;0.83;0.83;;;;;;;17.88;100.00;95642.97;4346874;32;20202;-61
2022/06/13 05:09:27;;;;;;;1.00;0.90;;;;;;;17.88;100.00;95632.22;4368740;32;20203;-61
2022/06/13 05:12:12;;;;;;;0.67;0.67;;;;;;;17.79;100.00;95628.88;4376257;32;20196;-62
2022/06/13 05:14:44;;;;;;;0.47;0.47;;;;;;;17.80;100.00;95620.50;4362332;32;20256;-61
2022/06/13 05:17:43;;;;;;;0.83;0.83;;;;;;;17.85;100.00;95636.38;4363121;32;20218;-61
2022/06/13 05:20:36;;;;;;;0.83;0.83;;;;;;;17.81;100.00;95642.75;4374027;32;20231;-61
2022/06/13 05:23:10;;;;;;;0.70;0.70;;;;;;;17.72;100.00;95650.09;4375460;32;20215;-62
2022/06/13 05:25:48;;;;;;;0.50;0.50;;;;;;;17.53;100.00;95647.84;4376311;32;20207;-61
2022/06/13 05:28:21;;;;;;;0.50;0.40;;;;;;;17.42;100.00;95641.34;4373651;32;20207;-61
2022/06/13 05:30:50;;;;;;;0.50;0.50;;;;;;;17.36;100.00;95638.06;4376798;32;20215;-62
2022/06/13 05:33:18;;;;;;;0.37;0.37;;;;;;;17.40;100.00;95622.09;4365067;32;20184;-61
2022/06/13 05:35:45;;;;;;;0.50;0.50;;;;;;;17.36;100.00;95616.59;4375343;32;20218;-63
2022/06/13 05:38:17;;;;;;;0.40;0.40;;;;;;;17.50;100.00;95619.00;4376676;32;20182;-61
2022/06/13 05:40:44;;;;;;;0.63;0.63;;;;;;;17.46;100.00;95621.56;4368426;32;20235;-61
2022/06/13 05:43:12;;;;;;;0.63;0.63;;;;;;;17.46;100.00;95626.91;4363546;32;20214;-61
2022/06/13 05:45:40;;;;;;;0.20;0.20;;;;;;;17.34;100.00;95623.41;4362025;32;20193;-61
2022/06/13 05:48:13;;;;;;;0.20;0.20;;;;;;;17.27;100.00;95620.47;4375149;32;20181;-61
2022/06/13 05:50:40;;;;;;;0.93;0.93;;;;;;;17.38;100.00;95624.31;4376082;32;20184;-61
2022/06/13 05:53:13;;;;;;;1.17;0.67;;;;;;;17.48;100.00;95630.06;4360508;32;20185;-61
2022/06/13 05:55:40;;;;;;;0.80;0.80;;;;;;;17.25;100.00;95631.50;4362088;32;20181;-61
2022/06/13 05:58:13;;;;;;;0.50;0.50;;;;;;;17.38;100.00;95629.69;4374908;32;20205;-61
2022/06/13 06:00:44;;;;;;;1.00;1.00;;;;;;;17.50;100.00;95635.09;4361682;32;20186;-61
2022/06/13 06:03:11;;;;;;;0.33;0.33;;;;;;;17.37;100.00;95628.13;4374946;32;20243;-61
2022/06/13 06:05:41;;;;;;;1.70;1.13;;;;;;;17.16;100.00;95628.91;4373948;32;20203;-61
2022/06/13 06:08:20;;;;;;;2.20;0.67;;;;;;;17.32;100.00;95620.28;4361097;32;20188;-61
2022/06/13 06:10:47;;;;;;;0.50;0.40;;;;;;;17.39;100.00;95617.84;4373457;32;20203;-61
2022/06/13 06:13:15;;;;;;;0.83;0.83;;;;;;;17.35;100.00;95616.94;4363238;32;20181;-61
2022/06/13 06:15:43;;;;;;;0.30;0.30;;;;;;;17.47;100.00;95616.97;4376881;32;20203;-61
2022/06/13 06:18:11;;;;;;;0.73;0.73;;;;;;;17.62;100.00;95623.66;4369140;32;20188;-62
2022/06/13 06:20:37;;;;;;;0.33;0.33;;;;;;;17.62;100.00;95624.44;4362276;32;20188;-61
2022/06/13 06:23:04;;;;;;;0.80;0.80;;;;;;;17.71;100.00;95625.16;4361268;32;20326;-61
2022/06/13 06:25:32;;;;;;;0.57;0.57;;;;;;;17.64;100.00;95624.09;4360967;32;20173;-62
2022/06/13 06:27:58;;;;;;;0.30;0.30;;;;;;;17.64;100.00;95626.78;4368695;32;20231;-61
2022/06/13 06:30:27;;;;;;;0.30;0.30;;;;;;;17.64;100.00;95626.78;4372721;32;20177;-61
2022/06/13 06:32:53;;;;;;;0.43;0.43;;;;;;;17.74;100.00;95624.50;4372825;32;20255;-62
2022/06/13 06:35:18;;;;;;;0.63;0.63;;;;;;;17.84;100.00;95624.09;4373982;32;20191;-61
2022/06/13 06:37:48;;;;;;;0.37;0.37;;;;;;;17.99;100.00;95627.25;4361035;32;20196;-61
2022/06/13 06:40:19;;;;;;;0.30;0.30;;;;;;;17.85;100.00;95636.38;4374794;32;20180;-62
2022/06/13 06:42:44;;;;;;;0.77;0.77;;;;;;;17.80;100.00;95647.31;4374374;32;20188;-63
2022/06/13 06:45:12;;;;;;;0.97;0.97;;;;;;;18.01;100.00;95641.91;4376877;32;20189;-61
2022/06/13 06:47:39;;;;;;;0.50;0.50;;;;;;;18.32;100.00;95643.28;4373619;32;20205;-61
2022/06/13 06:50:06;;;;;;;0.60;0.60;;;;;;;18.36;100.00;95636.91;4360145;32;20255;-61
2022/06/13 06:52:32;;;;;;;0.40;0.40;;;;;;;18.43;100.00;95631.78;4374206;32;20249;-61
2022/06/13 07:00:26;;;;;;;3.03;0.70;;;;;;;18.29;100.00;95649.34;4374589;32;20199;-61
2022/06/13 07:02:52;;;;;;;0.80;0.80;;;;;;;18.39;100.00;95641.63;4374175;32;20196;-61
2022/06/13 07:05:18;;;;;;;0.80;0.80;;;;;;;18.38;100.00;95640.06;4356081;32;20208;-61
2022/06/13 07:07:43;;;;;;;0.60;0.60;;;;;;;18.07;100.00;95647.84;4371526;32;20193;-61
2022/06/13 07:10:13;;;;;;;0.20;0.20;;;;;;;18.19;100.00;95648.66;4376051;32;20184;-61
2022/06/13 07:12:40;;;;;;;0.60;0.60;;;;;;;18.25;100.00;95643.84;4374593;32;20196;-61
2022/06/13 07:15:07;;;;;;;0.47;0.47;;;;;;;18.30;100.00;95648.97;4373376;32;20195;-61
2022/06/13 07:17:32;;;;;;;0.47;0.40;;;;;;;18.27;100.00;95644.31;4361013;32;20202;-61
2022/06/13 07:19:58;;;;;;;0.30;0.30;;;;;;;18.32;100.00;95651.34;4372234;32;20200;-61
2022/06/13 07:22:24;;;;;;;0.37;0.37;;;;;;;18.34;100.00;95659.84;4360736;32;20181;-61
2022/06/13 07:24:51;;;;;;;1.50;0.40;;;;;;;18.36;100.00;95654.94;4373702;32;20238;-61
2022/06/13 07:27:17;;;;;;;0.40;0.40;;;;;;;18.26;100.00;95658.84;4359522;32;20438;-61
2022/06/13 07:29:43;;;;;;;1.23;1.23;;;;;;;18.30;100.00;95662.41;4375150;32;20280;-61
2022/06/13 07:32:18;;;;;;;0.77;0.77;;;;;;;18.25;100.00;95656.50;4374539;32;20199;-61
2022/06/13 07:34:47;;;;;;;0.70;0.70;;;;;;;18.09;100.00;95662.50;4365434;32;20180;-62
2022/06/13 07:38:16;;;;;;;0.87;0.87;;;;;;;18.13;100.00;95655.34;4375536;32;20181;-61
2022/06/13 07:40:04;;;;;;;0.50;0.50;;;;;;;18.08;100.00;95660.16;4373481;32;20302;-61
2022/06/13 07:42:35;;;;;;;0.30;0.30;;;;;;;18.01;100.00;95671.44;4359872;32;20176;-61
2022/06/13 07:45:01;;;;;;;0.63;0.63;;;;;;;18.07;100.00;95663.97;4373932;32;20230;-61
2022/06/13 07:47:26;;;;;;;0.93;0.93;;;;;;;18.12;100.00;95658.34;4373641;32;20224;-61
2022/06/13 07:49:52;;;;;;;0.63;0.63;;;;;;;18.25;100.00;95664.56;4360055;32;20199;-61
2022/06/13 07:52:17;;;;;;;1.47;1.47;;;;;;;18.11;100.00;95662.16;4373836;32;20212;-61
2022/06/13 07:54:43;;;;;;;0.93;0.93;;;;;;;18.24;100.00;95662.97;4367918;32;20211;-61
2022/06/13 07:57:11;;;;;;;0.60;0.60;;;;;;;18.37;100.00;95668.03;4359938;32;20185;-61
2022/06/13 07:59:40;;;;;;;1.37;1.03;;;;;;;18.49;100.00;95664.59;4373693;32;20200;-61
2022/06/13 08:02:14;;;;;;;0.60;0.60;;;;;;;18.63;100.00;95675.03;4374114;32;20309;-61
2022/06/13 08:04:43;;;;;;;0.77;0.77;;;;;;;18.64;99.13;95665.84;4373607;32;20180;-61
2022/06/13 08:07:13;;;;;;;0.90;0.90;;;;;;;18.48;98.38;95679.13;4374562;32;20242;-61
2022/06/13 08:09:40;;;;;;;0.80;0.80;;;;;;;18.61;97.37;95678.06;4369393;32;20231;-61
2022/06/13 08:12:07;;;;;;;0.83;0.83;;;;;;;18.65;97.34;95670.09;4373962;32;20247;-61
2022/06/13 08:14:34;;;;;;;0.90;0.90;;;;;;;18.64;96.89;95668.53;4373084;32;20187;-61
2022/06/13 08:17:00;;;;;;;0.93;0.93;;;;;;;18.67;94.97;95673.25;4360977;32;20226;-61
2022/06/13 08:19:27;;;;;;;0.80;0.80;;;;;;;18.71;96.61;95679.50;4376435;32;20199;-61
2022/06/13 08:21:52;;;;;;;0.67;0.67;;;;;;;18.83;92.63;95679.50;4376599;32;20207;-61
2022/06/13 08:24:18;;;;;;;0.63;0.63;;;;;;;18.83;92.45;95684.88;4362319;32;20201;-61
2022/06/13 08:26:44;;;;;;;0.70;0.70;;;;;;;18.89;92.57;95691.62;4362296;32;20227;-62
2022/06/13 08:29:11;;;;;;;0.57;0.57;;;;;;;18.79;91.58;95687.47;4365130;32;20185;-61
2022/06/13 08:31:38;;;;;;;0.80;0.80;;;;;;;18.82;89.18;95686.00;4376288;32;20208;-61
2022/06/13 08:34:04;;;;;;;1.40;1.40;;;;;;;18.74;87.81;95703.03;4376411;32;20283;-61
2022/06/13 08:36:31;;;;;;;0.80;0.80;;;;;;;18.77;87.45;95694.28;4362795;32;20189;-61
2022/06/13 08:38:58;;;;;;;2.20;1.80;;;;;;;18.68;89.12;95702.47;4387124;32;20235;-60
2022/06/13 08:41:37;;;;;;;1.63;1.37;;;;;;;18.78;88.02;95703.91;4376429;32;20193;-60
2022/06/13 08:44:34;;;;;;;1.20;1.20;;;;;;;18.84;86.09;95700.69;4376083;32;20207;-60
2022/06/13 08:47:39;;;;;;;0.90;0.90;;;;;;;18.95;84.21;95709.06;4350135;32;20185;-60
2022/06/13 08:50:43;;;;;;;0.93;0.93;;;;;;;18.89;84.30;95707.75;4366045;32;20282;-60
2022/06/13 08:53:21;;;;;;;1.10;0.63;;;;;;;18.96;83.79;95694.50;4287011;33;20249;-60
2022/06/13 08:55:54;;;;;;;0.77;0.77;;;;;;;18.91;84.50;95702.81;4284980;33;20273;-61
2022/06/13 08:58:23;;;;;;;0.87;0.87;;;;;;;18.87;83.97;95707.28;4286611;33;20183;-61
2022/06/13 09:00:55;;;;;;;1.20;1.17;;;;;;;18.95;81.89;95706.38;4295656;33;20206;-61
2022/06/13 09:03:30;;;;;;;1.77;1.07;;;;;;;19.14;83.31;95706.59;4339372;32;20196;-60
2022/06/13 09:06:21;;;;;;;0.53;0.53;;;;;;;19.31;80.55;95691.34;4376134;32;20240;-60
2022/06/13 09:09:08;;;;;;;0.50;0.50;;;;;;;19.41;81.00;95696.25;4366909;32;20212;-60
2022/06/13 09:11:55;;;;;;;0.53;0.53;;;;;;;19.56;80.19;95714.38;4375459;32;23147;-61
2022/06/13 09:14:27;;;;;;;0.50;0.50;;;;;;;19.63;79.47;95709.22;4364890;32;20222;-61
2022/06/13 09:17:17;;;;;;;0.60;0.60;;;;;;;19.83;76.04;95708.25;4375864;32;20184;-61
2022/06/13 09:19:58;;;;;;;1.30;1.20;;;;;;;19.96;77.04;95717.06;4371698;32;20203;-61
2022/06/13 09:22:36;;;;;;;0.77;0.77;;;;;;;20.03;77.31;95724.56;4360962;32;20195;-60
2022/06/13 09:25:22;;;;;;;0.97;0.97;;;;;;;19.99;73.36;95731.75;4362186;32;20181;-60
2022/06/13 09:28:14;;;;;;;0.57;0.57;;;;;;;19.79;74.75;95723.53;4371676;32;20216;-60
2022/06/13 09:30:51;;;;;;;0.70;0.70;;;;;;;19.69;75.83;95718.63;4360752;32;20192;-61
2022/06/13 09:33:31;;;;;;;0.60;0.60;;;;;;;19.85;77.07;95721.38;4367349;32;20225;-61
2022/06/13 09:36:13;;;;;;;0.50;0.50;;;;;;;20.00;74.77;95720.62;4374446;32;20275;-60
2022/06/13 09:38:44;;;;;;;1.07;0.80;;;;;;;20.11;71.48;95726.31;4369575;32;20200;-61
2022/06/13 09:41:28;;;;;;;0.77;0.77;;;;;;;20.19;71.23;95722.69;4373935;32;20186;-61
2022/06/13 09:44:13;;;;;;;0.83;0.83;;;;;;;20.24;70.84;95733.22;4372451;32;20180;-61
2022/06/13 09:47:17;;;;;;;0.50;0.50;;;;;;;20.23;69.98;95727.03;4374723;32;20203;-60
2022/06/13 09:50:13;;;;;;;0.47;0.47;;;;;;;20.27;69.31;95740.63;4371774;32;20185;-61
2022/06/13 09:52:48;;;;;;;0.67;0.67;;;;;;;20.38;67.00;95722.81;4345439;32;20185;-60
2022/06/13 09:55:23;;;;;;;2.90;1.13;;;;;;;20.45;66.46;95727.63;4374434;32;20196;-60
2022/06/13 09:58:15;;;;;;;0.70;0.70;;;;;;;20.67;63.09;95732.44;4372272;32;20188;-61
2022/06/13 10:01:04;;;;;;;13.73;0.93;;;;;;;20.81;60.43;95738.16;4362480;32;20189;-60
2022/06/13 10:04:11;;;;;;;0.50;0.50;;;;;;;20.91;61.88;95739.56;4349683;32;20256;-60
2022/06/13 10:07:07;;;;;;;3.30;0.93;;;;;;;20.95;61.78;95734.25;4367524;32;20176;-60
2022/06/13 10:09:35;;;;;;;1.07;0.97;;;;;;;20.86;63.14;95735.22;4346600;32;20228;-60
2022/06/13 10:12:33;;;;;;;0.40;0.40;;;;;;;20.78;63.52;95727.31;4363863;32;20193;-61
2022/06/13 10:15:21;;;;;;;0.27;0.27;;;;;;;20.85;63.11;95735.56;4362441;32;20203;-61
2022/06/13 10:18:12;;;;;;;0.43;0.43;;;;;;;20.81;63.50;95730.06;4349845;32;20188;-61
2022/06/13 10:20:49;;;;;;;1.70;0.53;;;;;;;20.84;63.08;95737.47;4374386;32;20189;-61
2022/06/13 10:23:18;;;;;;;0.50;0.50;;;;;;;20.70;65.17;95739.03;4359842;32;20194;-62
2022/06/13 10:26:15;;;;;;;0.40;0.40;;;;;;;20.79;65.89;95726.16;4373687;32;20189;-61
2022/06/13 10:29:02;;;;;;;1.00;1.00;;;;;;;20.72;63.41;95736.78;4362589;32;20205;-61
2022/06/13 10:32:07;;;;;;;1.17;1.17;;;;;;;20.74;61.71;95739.94;4361189;32;20212;-61
2022/06/13 10:35:12;;;;;;;0.50;0.50;;;;;;;20.72;62.70;95734.09;4345191;32;20195;-61
2022/06/13 10:37:56;;;;;;;0.87;0.80;;;;;;;20.79;64.47;95740.44;4359987;32;20200;-61
2022/06/13 10:40:24;;;;;;;0.87;0.60;;;;;;;20.71;63.39;95746.00;4374332;32;20185;-61
2022/06/13 10:42:51;;;;;;;0.20;0.20;;;;;;;20.56;58.90;95752.97;4364911;32;20196;-61
2022/06/13 10:45:18;;;;;;;0.40;0.40;;;;;;;20.57;57.09;95751.84;4374712;32;20185;-62
2022/06/13 10:47:58;;;;;;;0.33;0.33;;;;;;;20.62;59.38;95734.59;4361178;32;20176;-62
2022/06/13 10:50:42;;;;;;;0.83;0.60;;;;;;;20.73;59.06;95735.66;4363364;32;20188;-61
2022/06/13 10:53:27;;;;;;;0.40;0.40;;;;;;;20.72;59.94;95736.78;4361132;32;20246;-61
2022/06/13 10:55:57;;;;;;;0.47;0.47;;;;;;;20.89;57.60;95747.22;4360988;32;20189;-61
2022/06/13 10:58:37;;;;;;;0.30;0.30;;;;;;;21.01;58.86;95749.03;4359283;32;20185;-61
2022/06/13 11:01:12;;;;;;;0.47;0.47;;;;;;;21.22;59.37;95744.94;4360911;32;20184;-61
2022/06/13 11:03:57;;;;;;;1.37;0.67;;;;;;;21.34;58.10;95746.00;4374194;32;20195;-61
2022/06/13 11:06:25;;;;;;;0.33;0.33;;;;;;;;;;4369631;32;20195;-61
2022/06/13 11:09:02;;;;;;;0.33;0.33;;;;;;;21.55;58.53;95741.06;4371308;32;20231;-61
2022/06/13 11:11:33;;;;;;;1.60;0.67;;;;;;;21.26;59.81;95755.84;4365534;32;20232;-61
2022/06/13 11:14:00;;;;;;;0.27;0.27;;;;;;;21.01;62.48;95752.53;4370570;32;20339;-61
2022/06/13 11:22:38;;;;;;;0.60;0.60;;;;;;;20.81;59.17;95751.66;4330953;32;20185;-61
2022/06/13 11:25:19;;;;;;;0.33;0.33;;;;;;;20.68;59.05;95752.09;4340750;32;20272;-61
2022/06/13 11:28:00;;;;;;;0.20;0.20;;;;;;;20.54;61.07;95745.22;4358698;32;20215;-62
2022/06/13 11:30:46;;;;;;;0.27;0.27;;;;;;;20.67;58.27;95751.31;4348436;32;20180;-61
2022/06/13 11:33:40;;;;;;;0.93;0.70;;;;;;;20.93;57.41;95742.72;4371406;32;20196;-61
2022/06/13 11:36:14;;;;;;;0.67;0.67;;;;;;;21.14;54.76;95756.72;4371562;32;20255;-61
2022/06/13 11:39:04;;;;;;;0.27;0.27;;;;;;;21.34;54.76;95740.59;4374102;32;20209;-61
2022/06/13 11:41:49;;;;;;;0.30;0.30;;;;;;;21.40;55.31;95752.69;4363913;32;20203;-61
2022/06/13 11:44:20;;;;;;;0.50;0.50;;;;;;;21.42;56.28;95745.78;4372249;32;20223;-62
2022/06/13 11:46:56;;;;;;;0.87;0.67;;;;;;;21.35;54.29;95742.16;4373411;32;20181;-61
2022/06/13 11:49:35;;;;;;;0.30;0.30;;;;;;;21.41;57.67;95746.91;4358209;32;20210;-61
2022/06/13 11:52:09;;;;;;;0.10;0.10;;;;;;;21.30;57.98;95735.13;4372357;32;20201;-61
2022/06/13 11:54:57;;;;;;;0.30;0.30;;;;;;;21.24;58.29;95750.78;4359718;32;20243;-61
2022/06/13 11:57:31;;;;;;;0.40;0.40;;;;;;;21.30;58.41;95745.12;4368905;32;20185;-61
2022/06/13 12:00:06;;;;;;;1.03;0.60;;;;;;;21.26;55.77;95748.53;4360220;32;20191;-61
2022/06/13 12:02:54;;;;;;;0.87;0.87;;;;;;;21.33;54.38;95749.81;4373205;32;20195;-61
2022/06/13 12:05:22;;;;;;;0.30;0.30;;;;;;;21.27;55.75;95752.78;4373593;32;20199;-61
2022/06/13 12:08:22;;;;;;;0.67;0.67;;;;;;;21.38;56.26;95746.88;4361741;32;20409;-61
2022/06/13 12:11:05;;;;;;;11.13;0.50;;;;;;;21.43;56.03;95743.88;4365557;32;20198;-62
2022/06/13 12:13:37;;;;;;;0.20;0.20;;;;;;;21.47;49.24;95744.75;4359600;32;20199;-62
2022/06/13 12:16:21;;;;;;;0.37;0.37;;;;;;;21.56;50.27;95751.53;4358946;32;20177;-59
2022/06/13 12:19:04;;;;;;;0.30;0.30;;;;;;;21.55;54.00;95746.47;4371763;32;20203;-59
2022/06/13 12:22:18;;;;;;;0.97;0.50;;;;;;;21.52;53.92;95752.56;4373623;32;20193;-59
2022/06/13 12:24:55;;;;;;;0.20;0.20;;;;;;;21.36;53.84;95758.00;4345436;32;20184;-60
2022/06/13 12:27:34;;;;;;;0.40;0.40;;;;;;;21.09;56.04;95750.78;4359723;32;20188;-59